Time;durP1;ratioP1;P1;durP2;ratioP2;P2;SDS_P1;SDS_P2;PMS_P1;PMS_P2;Temp;Humidity;BMP_temperature;BMP_pressure;BME280_temperature;BME280_humidity;BME280_pressure;Samples;Min_cycle;Max_cycle;Signal;HPM_P1;HPM_P2
2022/12/20 00:01:27;;;;;;;10.40;4.72;;;;;;;6.71;90.49;101826.50;5006905;28;20049;-79
2022/12/20 00:03:58;;;;;;;7.97;4.15;;;;;;;6.60;89.82;101809.53;5012846;28;20046;-80
2022/12/20 00:06:28;;;;;;;11.35;4.35;;;;;;;6.68;91.07;101821.19;5010263;28;20104;-80
2022/12/20 00:08:58;;;;;;;9.73;4.03;;;;;;;6.68;90.97;101822.06;5008919;28;20053;-80
2022/12/20 00:11:27;;;;;;;12.25;4.53;;;;;;;6.70;91.23;101830.75;5013604;28;20054;-79
2022/12/20 00:13:56;;;;;;;9.10;4.18;;;;;;;6.67;91.21;101830.59;5006698;28;20085;-79
2022/12/20 00:16:27;;;;;;;9.93;3.45;;;;;;;6.68;91.02;101831.47;5015255;28;20120;-79
2022/12/20 00:18:57;;;;;;;9.48;3.85;;;;;;;6.67;91.31;101832.28;5012606;28;20554;-77
2022/12/20 00:21:28;;;;;;;6.28;3.15;;;;;;;6.65;90.83;101831.28;5014883;28;20500;-80
2022/12/20 00:23:57;;;;;;;7.05;2.85;;;;;;;6.65;90.56;101836.44;5012759;28;20050;-77
2022/12/20 00:26:28;;;;;;;5.97;3.50;;;;;;;6.64;90.99;101840.69;5010188;28;20653;-77
2022/12/20 00:28:57;;;;;;;7.25;3.13;;;;;;;6.64;90.81;101834.63;5013067;28;20056;-77
2022/12/20 00:31:27;;;;;;;4.32;2.58;;;;;;;6.62;90.52;101842.28;5014342;28;20513;-76
2022/12/20 00:33:57;;;;;;;5.82;2.80;;;;;;;6.61;90.75;101830.19;5011682;28;20046;-76
2022/12/20 00:36:29;;;;;;;5.15;2.72;;;;;;;6.60;90.75;101827.53;5006606;28;20495;-77
2022/12/20 00:38:59;;;;;;;5.65;2.50;;;;;;;6.60;91.02;101820.72;5010756;28;20050;-77
2022/12/20 00:41:29;;;;;;;9.95;4.15;;;;;;;6.55;90.48;101818.63;5010015;28;20075;-78
2022/12/20 00:43:58;;;;;;;5.15;2.40;;;;;;;6.54;90.50;101824.56;5012215;28;20054;-77
2022/12/20 00:46:27;;;;;;;7.70;3.03;;;;;;;6.50;89.93;101816.69;5014077;28;21057;-75
2022/12/20 00:48:57;;;;;;;5.85;2.35;;;;;;;6.42;89.74;101817.88;5006464;28;20145;-79
2022/12/20 00:51:29;;;;;;;5.63;2.40;;;;;;;6.40;90.18;101813.44;5014221;28;20056;-82
2022/12/20 00:53:58;;;;;;;5.47;2.40;;;;;;;6.40;90.65;101798.88;5031478;28;20061;-83
2022/12/20 00:56:26;;;;;;;5.43;2.58;;;;;;;6.33;90.01;101791.59;5024795;28;20065;-81
2022/12/20 00:58:55;;;;;;;7.63;2.80;;;;;;;6.29;90.70;101792.16;5033285;28;20049;-77
2022/12/20 01:01:26;;;;;;;4.45;2.38;;;;;;;6.31;91.56;101792.28;5031672;28;20045;-79
2022/12/20 01:03:55;;;;;;;6.45;2.65;;;;;;;6.21;92.59;101770.25;5032409;28;20136;-75
2022/12/20 01:06:25;;;;;;;6.30;2.67;;;;;;;6.22;93.34;101772.03;5024163;28;20585;-77
2022/12/20 01:08:56;;;;;;;9.82;2.90;;;;;;;6.10;93.73;101767.00;5028821;28;20136;-77
2022/12/20 01:11:26;;;;;;;8.48;2.50;;;;;;;6.07;94.20;101766.81;5021208;28;20502;-78
2022/12/20 01:13:57;;;;;;;9.95;4.30;;;;;;;6.06;94.13;101771.03;5025090;28;20482;-79
2022/12/20 01:16:27;;;;;;;10.48;4.35;;;;;;;6.06;94.42;101765.91;5022975;28;20045;-77
2022/12/20 01:18:56;;;;;;;7.68;4.55;;;;;;;6.07;95.45;101775.41;5022335;28;20053;-79
2022/12/20 01:21:27;;;;;;;11.32;4.85;;;;;;;6.07;95.51;101767.69;5028850;28;20061;-83
2022/12/20 01:23:57;;;;;;;14.38;4.70;;;;;;;6.10;95.48;101750.69;5029029;28;20045;-77
2022/12/20 01:26:29;;;;;;;10.85;4.75;;;;;;;6.12;95.63;101738.84;5027017;28;20065;-80
2022/12/20 01:28:59;;;;;;;8.73;3.78;;;;;;;6.12;95.64;101749.13;5020279;28;20046;-79
2022/12/20 01:31:29;;;;;;;12.45;4.60;;;;;;;6.03;94.80;101741.72;5031613;28;20073;-83
2022/12/20 01:33:58;;;;;;;8.27;3.45;;;;;;;6.15;94.74;101750.19;5031233;28;20050;-81
2022/12/20 01:36:28;;;;;;;9.52;3.97;;;;;;;6.15;95.43;101744.16;5029192;28;20052;-78
2022/12/20 01:39:01;;;;;;;7.20;3.72;;;;;;;6.14;95.07;101742.38;5023160;28;20392;-77
2022/12/20 01:41:31;;;;;;;8.02;3.40;;;;;;;6.15;95.61;101729.63;5031269;28;20063;-79
2022/12/20 01:44:01;;;;;;;8.15;3.28;;;;;;;6.16;94.96;101727.94;5033152;28;20057;-87
2022/12/20 01:46:31;;;;;;;8.88;3.13;;;;;;;6.16;95.58;101725.38;5021645;28;20187;-78
2022/12/20 01:49:03;;;;;;;6.60;2.88;;;;;;;6.06;94.52;101704.22;5025791;28;20083;-79
2022/12/20 01:51:35;;;;;;;5.45;2.50;;;;;;;6.05;95.36;101706.72;5030455;28;20057;-85
2022/12/20 01:54:09;;;;;;;11.00;3.05;;;;;;;6.00;95.55;101709.00;5029546;28;20099;-80
2022/12/20 01:56:47;;;;;;;7.07;3.05;;;;;;;6.01;95.97;101712.47;5030472;28;20049;-82
2022/12/20 01:59:16;;;;;;;10.18;3.22;;;;;;;6.02;96.04;101717.66;5030889;28;20143;-79
2022/12/20 02:01:46;;;;;;;7.32;2.92;;;;;;;6.04;96.22;101721.22;5028309;28;20112;-79
2022/12/20 02:04:14;;;;;;;7.07;2.70;;;;;;;6.03;96.27;101716.03;5031714;28;20052;-78
2022/12/20 02:06:43;;;;;;;10.65;2.78;;;;;;;6.01;96.19;101723.63;5031366;28;20065;-77
2022/12/20 02:09:13;;;;;;;5.10;2.90;;;;;;;6.02;96.48;101701.38;5020955;28;20054;-76
2022/12/20 02:12:05;;;;;;;8.38;3.08;;;;;;;6.02;97.24;101702.25;5030322;28;20124;-75
2022/12/20 02:14:48;;;;;;;5.45;2.55;;;;;;;6.03;96.43;101692.91;5029242;28;20041;-77
2022/12/20 02:17:27;;;;;;;9.95;2.35;;;;;;;6.02;96.88;101674.00;5026473;28;20492;-77
2022/12/20 02:20:23;;;;;;;9.00;2.72;;;;;;;6.02;96.86;101675.69;5028731;28;20049;-77
2022/12/20 02:23:12;;;;;;;7.38;3.35;;;;;;;5.98;97.65;101674.63;5024792;28;20488;-76
2022/12/20 02:25:58;;;;;;;6.93;2.80;;;;;;;6.00;97.54;101679.84;5019887;28;20045;-78
2022/12/20 02:28:52;;;;;;;9.65;3.00;;;;;;;6.00;97.34;101679.84;5030572;28;20496;-77
2022/12/20 02:31:28;;;;;;;5.13;2.75;;;;;;;6.01;96.88;101702.19;5025552;28;20049;-77
2022/12/20 02:33:58;;;;;;;5.72;2.72;;;;;;;5.99;96.91;101717.50;5032016;28;20092;-77
2022/12/20 02:36:27;;;;;;;4.20;2.33;;;;;;;5.97;97.34;101713.94;5031801;28;20057;-78
2022/12/20 02:38:55;;;;;;;7.70;3.67;;;;;;;5.96;97.02;101701.88;5030301;28;20046;-80
2022/12/20 02:41:27;;;;;;;6.07;3.05;;;;;;;5.96;97.50;101712.16;5022228;28;20499;-81
2022/12/20 02:46:47;;;;;;;7.45;3.40;;;;;;;5.97;97.10;101723.31;5027813;28;20052;-77
2022/12/20 02:49:20;;;;;;;6.25;3.10;;;;;;;5.96;96.82;101711.28;5022228;28;20064;-77
2022/12/20 02:51:52;;;;;;;10.90;4.43;;;;;;;5.96;96.10;101708.72;5023338;28;20521;-76
2022/12/20 02:54:20;;;;;;;10.68;4.82;;;;;;;5.94;96.04;101713.75;5029877;28;20088;-77
2022/12/20 02:56:53;;;;;;;16.65;5.57;;;;;;;5.91;95.72;101723.81;5027256;28;20041;-77
2022/12/20 02:59:22;;;;;;;;;;;;;;;5.87;95.67;101717.56;5024221;28;20060;-76
2022/12/20 03:01:55;;;;;;;10.05;4.78;;;;;;;5.87;96.01;101719.25;5018814;28;20651;-77
2022/12/20 03:04:27;;;;;;;13.25;4.88;;;;;;;5.86;95.48;101709.75;5031093;28;20037;-76
2022/12/20 03:07:00;;;;;;;13.17;5.77;;;;;;;5.83;95.26;101707.00;5025542;28;20050;-79
2022/12/20 03:09:30;;;;;;;11.93;4.97;;;;;;;5.80;95.73;101699.13;5024780;28;20927;-76
2022/12/20 03:11:59;;;;;;;10.85;4.90;;;;;;;5.78;95.63;101691.31;5028973;28;20053;-77
2022/12/20 03:14:28;;;;;;;11.13;4.38;;;;;;;5.76;95.91;101689.44;5025193;28;20049;-77
2022/12/20 03:16:59;;;;;;;10.95;5.20;;;;;;;5.74;96.34;101698.72;5023031;28;20050;-77
2022/12/20 03:19:27;;;;;;;13.13;5.00;;;;;;;5.72;96.72;101690.03;5020228;28;20068;-77
2022/12/20 03:21:56;;;;;;;8.93;4.55;;;;;;;5.72;96.75;101692.59;5028707;28;20349;-78
2022/12/20 03:24:25;;;;;;;9.75;4.13;;;;;;;5.72;96.71;101684.88;5026921;28;20045;-81
2022/12/20 03:26:53;;;;;;;13.38;4.20;;;;;;;5.72;96.29;101695.16;5018452;28;20404;-77
2022/12/20 03:29:22;;;;;;;7.18;3.30;;;;;;;5.71;96.35;101688.25;5025479;28;20046;-76
2022/12/20 03:31:50;;;;;;;8.68;4.97;;;;;;;5.70;96.27;101686.47;5020915;28;20053;-76
2022/12/20 03:34:21;;;;;;;12.07;4.78;;;;;;;5.59;96.00;101662.66;5021126;28;20384;-76
2022/12/20 03:36:49;;;;;;;8.30;3.92;;;;;;;5.65;96.34;101681.91;5021824;28;20118;-78
2022/12/20 03:39:18;;;;;;;10.55;4.07;;;;;;;5.64;96.44;101685.28;5025328;28;20626;-78
2022/12/20 03:41:47;;;;;;;13.77;3.63;;;;;;;5.64;96.82;101686.97;5021723;28;20050;-78
2022/12/20 03:44:16;;;;;;;12.40;5.57;;;;;;;5.63;96.75;101680.03;5029099;28;20041;-79
2022/12/20 03:46:44;;;;;;;8.50;3.92;;;;;;;5.62;96.81;101684.28;5030006;28;20582;-78
2022/12/20 03:49:13;;;;;;;8.93;4.47;;;;;;;5.59;98.04;101668.69;5024501;28;20525;-78
2022/12/20 03:51:45;;;;;;;14.88;5.03;;;;;;;5.61;97.90;101666.22;5028676;28;20758;-80
2022/12/20 03:54:14;;;;;;;11.23;5.72;;;;;;;5.61;98.22;101672.25;5028578;28;20445;-78
2022/12/20 03:56:42;;;;;;;13.20;5.70;;;;;;;5.60;97.91;101675.59;5032147;28;20636;-78
2022/12/20 03:59:11;;;;;;;16.08;6.60;;;;;;;5.59;97.70;101672.94;5030890;28;20096;-77
2022/12/20 04:01:40;;;;;;;17.63;6.43;;;;;;;5.57;96.99;101665.16;5025007;28;20053;-78
2022/12/20 04:04:11;;;;;;;11.32;5.72;;;;;;;5.56;97.46;101663.34;5033368;28;20136;-78
2022/12/20 04:06:39;;;;;;;9.13;4.35;;;;;;;5.55;97.37;101674.44;5029979;28;20085;-76
2022/12/20 04:09:10;;;;;;;12.20;5.07;;;;;;;5.54;97.05;101674.31;5024156;28;20104;-79
2022/12/20 04:11:39;;;;;;;11.13;5.18;;;;;;;5.53;96.54;101681.13;5027915;28;20112;-77
2022/12/20 04:14:08;;;;;;;10.27;4.50;;;;;;;5.50;96.54;101693.78;5026268;28;20054;-79
2022/12/20 04:16:37;;;;;;;9.05;4.32;;;;;;;5.48;96.52;101699.59;5021927;28;20680;-77
2022/12/20 04:19:06;;;;;;;11.07;4.57;;;;;;;5.45;96.61;101706.31;5028457;28;20054;-76
2022/12/20 04:21:36;;;;;;;15.02;4.07;;;;;;;5.44;96.43;101704.53;5028875;28;20053;-78
2022/12/20 04:24:05;;;;;;;12.27;4.38;;;;;;;5.41;96.27;101699.19;5025931;28;20123;-77
2022/12/20 04:26:36;;;;;;;10.07;4.53;;;;;;;5.40;95.85;101696.53;5029861;28;20421;-75
2022/12/20 04:29:04;;;;;;;13.20;4.75;;;;;;;5.39;96.36;101689.63;5025524;28;20509;-79
2022/12/20 04:31:33;;;;;;;14.05;4.13;;;;;;;5.38;96.25;101682.69;5032996;28;20045;-81
2022/12/20 04:34:02;;;;;;;13.52;5.57;;;;;;;5.35;96.14;101680.81;5026947;28;20057;-81
2022/12/20 04:36:31;;;;;;;12.30;5.03;;;;;;;5.34;95.95;101680.75;5023087;28;20049;-81
2022/12/20 04:39:00;;;;;;;10.63;3.97;;;;;;;5.32;96.09;101682.31;5029945;28;20560;-82
2022/12/20 04:41:28;;;;;;;11.00;4.18;;;;;;;5.30;96.38;101689.03;5022931;28;20041;-80
2022/12/20 04:43:59;;;;;;;15.05;5.40;;;;;;;5.28;95.92;101688.03;5029299;28;20388;-79
2022/12/20 04:46:28;;;;;;;16.45;4.55;;;;;;;5.27;95.86;101686.25;5026195;28;20090;-79
2022/12/20 04:48:57;;;;;;;8.35;4.13;;;;;;;5.24;95.86;101685.28;5021097;28;20085;-79
2022/12/20 04:51:25;;;;;;;10.05;4.45;;;;;;;5.22;96.41;101681.72;5031815;28;20049;-80
2022/12/20 04:53:59;;;;;;;9.10;4.40;;;;;;;5.21;96.47;101677.34;5030095;28;20061;-80
2022/12/20 04:56:29;;;;;;;13.52;5.00;;;;;;;5.20;96.70;101683.28;5026624;28;20049;-79
2022/12/20 04:59:01;;;;;;;12.40;5.15;;;;;;;5.19;97.13;101678.94;5020560;28;20053;-79
2022/12/20 05:01:30;;;;;;;9.00;4.30;;;;;;;5.17;96.59;101683.06;5025106;28;20526;-80
2022/12/20 05:03:58;;;;;;;11.48;4.63;;;;;;;5.13;96.66;101681.09;5026980;28;20057;-78
2022/12/20 05:06:27;;;;;;;11.00;4.75;;;;;;;5.10;96.95;101680.88;5030098;28;20533;-79
2022/12/20 05:08:56;;;;;;;12.13;5.53;;;;;;;5.09;97.38;101702.22;5026553;28;20985;-78
2022/12/20 05:11:24;;;;;;;8.60;4.65;;;;;;;5.08;97.42;101702.97;5024983;28;20041;-77
2022/12/20 05:13:53;;;;;;;9.88;4.32;;;;;;;5.08;97.62;101702.97;5027141;28;20120;-81
2022/12/20 05:16:23;;;;;;;11.32;4.63;;;;;;;5.07;97.04;101706.34;5029735;28;20103;-78
2022/12/20 05:18:53;;;;;;;9.55;5.03;;;;;;;5.07;97.13;101700.34;5029717;28;20450;-78
2022/12/20 05:26:53;;;;;;;10.30;4.40;;;;;;;5.04;97.63;101688.19;5028756;28;20083;-80
2022/12/20 05:29:22;;;;;;;7.70;4.35;;;;;;;5.03;97.48;101686.41;5026127;28;20049;-80
2022/12/20 05:31:52;;;;;;;8.82;4.93;;;;;;;5.01;97.33;101685.41;5031162;28;20052;-80
2022/12/20 05:34:21;;;;;;;10.20;5.15;;;;;;;4.97;97.56;101683.41;5025936;28;20068;-76
2022/12/20 05:36:50;;;;;;;8.50;4.28;;;;;;;4.94;97.96;101686.66;5028571;28;20517;-78
2022/12/20 05:39:19;;;;;;;9.45;4.35;;;;;;;4.95;98.08;101682.47;5024670;28;20474;-80
2022/12/20 05:41:48;;;;;;;8.23;3.90;;;;;;;4.93;98.04;101686.59;5018987;28;20073;-77
2022/12/20 05:44:16;;;;;;;15.05;4.75;;;;;;;4.91;98.10;101690.72;5025225;28;20076;-78
2022/12/20 05:46:45;;;;;;;10.82;4.80;;;;;;;4.91;98.19;101695.84;5018488;28;20557;-77
2022/12/20 05:49:15;;;;;;;11.50;4.30;;;;;;;4.90;98.29;101697.53;5020326;28;20055;-76
2022/12/20 05:51:44;;;;;;;11.50;4.80;;;;;;;4.90;98.60;101697.53;5028158;28;20095;-78
2022/12/20 05:54:13;;;;;;;12.57;5.20;;;;;;;4.91;98.36;101703.53;5022979;28;20057;-77
2022/12/20 05:56:42;;;;;;;12.73;5.43;;;;;;;4.92;98.31;101702.75;5016918;28;20053;-77
2022/12/20 05:59:10;;;;;;;9.73;4.90;;;;;;;4.91;99.11;101709.56;5023762;28;20152;-80
2022/12/20 06:01:39;;;;;;;12.05;4.35;;;;;;;4.90;98.41;101701.75;5026452;28;20900;-79
2022/12/20 06:04:08;;;;;;;13.15;5.05;;;;;;;4.88;98.46;101706.78;5016870;28;20045;-79
2022/12/20 06:06:38;;;;;;;10.68;4.50;;;;;;;4.89;98.51;101705.13;5025364;28;20050;-81
2022/12/20 06:09:07;;;;;;;16.67;6.25;;;;;;;4.85;98.40;101710.81;5022366;28;20607;-81
2022/12/20 06:11:36;;;;;;;15.75;6.07;;;;;;;4.80;97.92;101713.94;5017807;28;20055;-81
2022/12/20 06:14:04;;;;;;;17.05;6.25;;;;;;;4.79;98.31;101709.63;5022672;28;20072;-81
2022/12/20 06:16:33;;;;;;;12.18;4.93;;;;;;;4.78;99.03;101706.94;5024522;28;20046;-80
2022/12/20 06:19:02;;;;;;;12.45;5.35;;;;;;;4.77;98.96;101706.06;5024189;28;20049;-82
2022/12/20 06:21:30;;;;;;;14.07;5.22;;;;;;;4.76;99.22;101711.06;5027056;28;20100;-79
2022/12/20 06:24:01;;;;;;;14.70;4.97;;;;;;;4.75;100.00;101715.31;5020599;28;20053;-80
2022/12/20 06:26:34;;;;;;;12.75;4.20;;;;;;;4.77;100.00;101711.19;5022899;28;20458;-83
2022/12/20 06:29:05;;;;;;;9.85;3.55;;;;;;;4.77;100.00;101711.19;5029728;28;20080;-82
2022/12/20 06:31:34;;;;;;;13.77;3.92;;;;;;;4.78;100.00;101718.06;5023912;28;20049;-79
2022/12/20 06:34:03;;;;;;;6.45;3.25;;;;;;;4.79;100.00;101725.00;5027234;28;20057;-79
2022/12/20 06:36:32;;;;;;;5.93;3.67;;;;;;;4.81;100.00;101728.56;5022755;28;20041;-79
2022/12/20 06:39:02;;;;;;;6.25;3.17;;;;;;;4.82;100.00;101730.34;5022648;28;20142;-77
2022/12/20 06:41:31;;;;;;;7.97;3.30;;;;;;;4.83;100.00;101723.50;5019607;28;20649;-79
2022/12/20 06:44:00;;;;;;;7.22;3.72;;;;;;;4.83;100.00;101719.31;5021505;28;20080;-76
2022/12/20 06:46:29;;;;;;;13.40;3.83;;;;;;;4.84;100.00;101712.50;5024580;28;20049;-78
2022/12/20 06:48:58;;;;;;;10.60;4.00;;;;;;;4.86;100.00;101720.31;5020180;28;20435;-78
2022/12/20 06:51:26;;;;;;;8.10;3.40;;;;;;;4.85;100.00;101726.19;5019856;28;20049;-81
2022/12/20 06:53:55;;;;;;;5.93;3.38;;;;;;;4.85;100.00;101731.31;5026227;28;20080;-79
2022/12/20 06:56:25;;;;;;;8.88;3.90;;;;;;;4.86;100.00;101738.25;5022471;28;20156;-82
2022/12/20 06:58:54;;;;;;;10.80;3.88;;;;;;;4.80;100.00;101737.03;5023797;28;20061;-81
2022/12/20 07:01:22;;;;;;;7.43;3.70;;;;;;;4.68;100.00;101723.38;5018150;28;20487;-80
2022/12/20 07:03:51;;;;;;;9.63;3.83;;;;;;;4.76;100.00;101732.47;5020458;28;20048;-79
2022/12/20 07:06:20;;;;;;;13.07;4.13;;;;;;;4.78;100.00;101743.72;5025869;28;20049;-80
2022/12/20 07:08:48;;;;;;;10.77;3.55;;;;;;;4.76;100.00;101747.84;5019813;28;20057;-81
2022/12/20 07:11:17;;;;;;;10.48;4.43;;;;;;;4.72;100.00;101753.56;5021443;28;20236;-82
2022/12/20 07:13:49;;;;;;;8.32;3.83;;;;;;;4.69;100.00;101748.22;5025224;28;20063;-83
2022/12/20 07:16:17;;;;;;;12.68;3.17;;;;;;;4.67;100.00;101752.34;5024838;28;20045;-78
2022/12/20 07:18:49;;;;;;;10.02;3.85;;;;;;;4.67;100.00;101744.66;5025021;28;20063;-78
2022/12/20 07:21:18;;;;;;;5.20;2.80;;;;;;;4.70;100.00;101741.44;5023212;28;20669;-77
2022/12/20 07:23:47;;;;;;;5.88;3.22;;;;;;;4.62;100.00;101721.25;5024327;28;20045;-77
2022/12/20 07:26:16;;;;;;;6.35;3.30;;;;;;;4.75;100.00;101738.41;5023267;28;20049;-76
2022/12/20 07:28:46;;;;;;;6.78;3.50;;;;;;;4.78;100.00;101738.59;5023045;28;20045;-82
2022/12/20 07:31:15;;;;;;;8.45;3.40;;;;;;;4.80;100.00;101731.91;5028624;28;20049;-77
2022/12/20 07:33:44;;;;;;;8.50;4.05;;;;;;;4.79;100.00;101739.50;5022860;28;20319;-77
2022/12/20 07:36:14;;;;;;;9.98;3.00;;;;;;;4.74;100.00;101736.63;5022256;28;20231;-78
2022/12/20 07:38:43;;;;;;;7.68;3.47;;;;;;;4.70;100.00;101744.88;5020239;28;20046;-78
2022/12/20 07:41:13;;;;;;;8.45;3.30;;;;;;;4.68;100.00;101745.56;5017240;28;20212;-77
2022/12/20 07:43:42;;;;;;;6.95;3.05;;;;;;;4.65;100.00;101733.44;5024987;28;20049;-77
2022/12/20 07:46:14;;;;;;;5.28;2.78;;;;;;;4.66;100.00;101730.06;5024467;28;20410;-78
2022/12/20 07:48:44;;;;;;;6.30;3.00;;;;;;;4.65;100.00;101725.75;5025316;28;20045;-78
2022/12/20 07:51:17;;;;;;;5.82;2.80;;;;;;;4.64;100.00;101734.19;5025859;28;20384;-77
2022/12/20 07:53:50;;;;;;;7.40;3.83;;;;;;;4.63;100.00;101737.56;5023599;28;20068;-78
2022/12/20 07:56:21;;;;;;;6.78;3.83;;;;;;;4.62;100.00;101725.50;5026461;28;20045;-77
2022/12/20 07:58:52;;;;;;;6.82;3.30;;;;;;;4.65;100.00;101705.22;5018687;28;20636;-77
2022/12/20 08:01:22;;;;;;;7.03;3.55;;;;;;;4.67;100.00;101706.19;5025238;28;20049;-77
2022/12/20 08:03:56;;;;;;;6.35;3.75;;;;;;;4.69;100.00;101717.44;5022371;28;20056;-79
2022/12/20 08:06:25;;;;;;;5.82;3.40;;;;;;;4.70;100.00;101714.13;5020480;28;20057;-80
2022/12/20 08:08:59;;;;;;;6.10;3.83;;;;;;;4.72;100.00;101709.06;5019766;28;20045;-78
2022/12/20 08:11:30;;;;;;;7.05;3.72;;;;;;;4.70;100.00;101695.28;5022617;28;20041;-78
2022/12/20 08:13:59;;;;;;;10.95;4.30;;;;;;;4.67;100.00;101698.50;5021053;28;20085;-78
2022/12/20 08:16:29;;;;;;;5.97;2.97;;;;;;;4.67;100.00;101703.63;5029033;28;20061;-79
2022/12/20 08:18:58;;;;;;;6.95;4.05;;;;;;;4.67;100.00;101703.63;5018400;28;20112;-78
2022/12/20 08:21:27;;;;;;;7.45;3.88;;;;;;;4.70;100.00;101709.00;5026086;28;20046;-77
2022/12/20 08:23:56;;;;;;;8.10;3.95;;;;;;;4.73;100.00;101713.44;5019110;28;20050;-77
2022/12/20 08:26:25;;;;;;;10.80;3.90;;;;;;;4.75;100.00;101717.00;5023714;28;20566;-78
2022/12/20 08:28:54;;;;;;;5.63;3.75;;;;;;;4.75;100.00;101717.88;5020264;28;20485;-74
2022/12/20 08:31:23;;;;;;;5.70;3.60;;;;;;;4.75;100.00;101712.75;5029850;28;20059;-77
2022/12/20 08:33:55;;;;;;;6.57;3.40;;;;;;;4.76;100.00;101722.22;5027854;28;20081;-78
2022/12/20 08:36:24;;;;;;;8.77;3.97;;;;;;;4.77;100.00;101725.69;5023196;28;20128;-79
2022/12/20 08:38:53;;;;;;;8.65;4.47;;;;;;;4.78;100.00;101728.34;5028880;28;20056;-81
2022/12/20 08:41:21;;;;;;;11.10;4.38;;;;;;;4.80;100.00;101725.88;5025549;28;20038;-80
2022/12/20 08:43:59;;;;;;;13.75;5.30;;;;;;;4.82;100.00;101735.47;5030329;28;20103;-79
2022/12/20 08:46:28;;;;;;;15.88;6.35;;;;;;;4.86;100.00;101730.56;5024120;28;20049;-80
2022/12/20 08:48:58;;;;;;;18.08;8.13;;;;;;;4.87;100.00;101722.94;5028718;28;20660;-80
2022/12/20 08:51:27;;;;;;;15.65;6.60;;;;;;;4.87;100.00;101728.06;5026746;28;20054;-80
2022/12/20 08:54:03;;;;;;;16.58;7.43;;;;;;;4.86;100.00;101723.75;5027223;28;20664;-80
2022/12/20 08:56:38;;;;;;;13.20;6.10;;;;;;;4.86;100.00;101722.88;5030452;28;20092;-80
2022/12/20 08:59:07;;;;;;;12.25;5.70;;;;;;;4.88;100.00;101731.53;5024080;28;20112;-81
2022/12/20 09:01:35;;;;;;;16.70;6.45;;;;;;;4.90;100.00;101727.38;5030643;28;20085;-81
2022/12/20 09:04:06;;;;;;;15.93;6.30;;;;;;;4.91;100.00;101713.81;5027062;28;20084;-81
2022/12/20 09:06:36;;;;;;;14.85;5.63;;;;;;;4.93;100.00;101707.09;5027041;28;20049;-80
2022/12/20 09:09:05;;;;;;;13.25;5.45;;;;;;;4.94;100.00;101693.47;5026412;28;20966;-80
2022/12/20 09:11:34;;;;;;;12.80;5.05;;;;;;;4.94;100.00;101701.19;5027796;28;20109;-80
2022/12/20 09:14:03;;;;;;;9.32;4.60;;;;;;;4.93;100.00;101696.84;5029766;28;20054;-81
2022/12/20 09:16:33;;;;;;;10.43;4.75;;;;;;;4.93;100.00;101700.28;5022322;28;20418;-81
2022/12/20 09:19:03;;;;;;;12.27;5.72;;;;;;;4.93;100.00;101702.84;5029063;28;20072;-80
2022/12/20 09:21:33;;;;;;;9.63;5.35;;;;;;;4.95;100.00;101703.84;5029032;28;20049;-80
2022/12/20 09:24:02;;;;;;;11.35;5.75;;;;;;;4.96;100.00;101703.06;5026885;28;20060;-80
2022/12/20 09:26:31;;;;;;;8.80;5.05;;;;;;;4.93;100.00;101701.97;5025904;28;20510;-80
2022/12/20 09:29:00;;;;;;;11.32;5.07;;;;;;;4.89;100.00;101695.72;5027550;28;20120;-78
2022/12/20 09:31:29;;;;;;;10.25;4.65;;;;;;;4.89;100.00;101702.56;5028816;28;20088;-80
2022/12/20 09:33:59;;;;;;;9.45;5.32;;;;;;;4.84;100.00;101702.25;5026153;28;20059;-79
2022/12/20 09:36:29;;;;;;;10.32;5.65;;;;;;;4.81;100.00;101702.00;5029109;28;20060;-80
2022/12/20 09:38:59;;;;;;;11.80;4.72;;;;;;;4.81;100.00;101702.00;5024156;28;20462;-80
2022/12/20 09:41:33;;;;;;;14.68;6.50;;;;;;;4.79;100.00;101709.63;5028141;28;20054;-80
2022/12/20 09:44:08;;;;;;;11.82;5.45;;;;;;;4.78;100.00;101706.94;5028745;28;20072;-79
2022/12/20 09:46:36;;;;;;;11.23;5.68;;;;;;;4.77;100.00;101713.75;5028139;28;20049;-79
2022/12/20 09:49:05;;;;;;;8.95;4.55;;;;;;;4.78;100.00;101702.69;5022472;28;20122;-79
2022/12/20 09:52:04;;;;;;;12.13;4.63;;;;;;;4.65;100.00;101694.97;5027680;28;20048;-79
2022/12/20 09:54:43;;;;;;;13.00;4.43;;;;;;;4.74;100.00;101708.41;5024744;28;20065;-79
2022/12/20 09:57:23;;;;;;;9.30;4.63;;;;;;;4.76;100.00;101714.50;5026022;28;20135;-78
2022/12/20 09:59:52;;;;;;;11.32;5.05;;;;;;;4.81;100.00;101718.31;5025503;28;20060;-79
2022/12/20 10:02:24;;;;;;;9.65;4.53;;;;;;;4.83;100.00;101721.88;5025078;28;20049;-79
2022/12/20 10:04:54;;;;;;;9.18;4.13;;;;;;;4.83;100.00;101720.94;5025105;28;20060;-81
2022/12/20 10:07:35;;;;;;;8.27;4.57;;;;;;;4.86;100.00;101723.75;5030270;28;20131;-80
2022/12/20 10:10:35;;;;;;;8.90;4.78;;;;;;;4.91;100.00;101718.94;5024636;28;20051;-81
2022/12/20 10:13:19;;;;;;;10.75;4.43;;;;;;;4.90;100.00;101712.91;5028227;28;20049;-81
2022/12/20 10:15:51;;;;;;;9.55;4.22;;;;;;;4.91;100.00;101716.38;5030719;28;20081;-81
2022/12/20 10:18:37;;;;;;;12.13;5.28;;;;;;;4.95;100.00;101708.97;5035553;28;20088;-81
2022/12/20 10:21:17;;;;;;;11.68;5.38;;;;;;;4.97;100.00;101712.53;5025520;28;20055;-81
2022/12/20 10:23:56;;;;;;;9.27;4.57;;;;;;;5.00;100.00;101720.44;5023229;28;20064;-82
2022/12/20 10:26:27;;;;;;;12.63;5.20;;;;;;;5.02;100.00;101705.16;5026178;28;20937;-81
2022/12/20 10:28:55;;;;;;;11.00;4.88;;;;;;;5.04;100.00;101701.03;5024706;28;20049;-79
2022/12/20 10:31:24;;;;;;;10.77;5.28;;;;;;;5.06;100.00;101703.66;5029979;28;20056;-80
2022/12/20 10:33:53;;;;;;;11.35;4.53;;;;;;;5.07;100.00;101701.22;5027093;28;20064;-80
2022/12/20 10:36:25;;;;;;;9.85;4.85;;;;;;;5.09;100.00;101707.34;5023716;28;20049;-80
2022/12/20 10:38:55;;;;;;;11.25;4.90;;;;;;;5.07;100.00;101701.22;5026807;28;20046;-80
2022/12/20 10:41:27;;;;;;;15.55;5.95;;;;;;;5.08;100.00;101702.09;5027261;28;20077;-80
2022/12/20 10:44:00;;;;;;;14.18;5.65;;;;;;;5.04;100.00;101704.47;5030221;28;20046;-80
2022/12/20 10:46:41;;;;;;;12.07;5.72;;;;;;;5.04;100.00;101711.28;5027688;28;20065;-80
2022/12/20 10:49:31;;;;;;;13.57;5.85;;;;;;;5.06;100.00;101706.22;5026051;28;20076;-80
2022/12/20 10:52:02;;;;;;;11.82;5.10;;;;;;;5.06;100.00;101713.94;5021390;28;20053;-82
2022/12/20 10:54:35;;;;;;;11.90;5.82;;;;;;;5.05;100.00;101715.59;5019909;28;20072;-81
2022/12/20 10:57:22;;;;;;;14.43;6.35;;;;;;;5.02;100.00;101712.84;5027837;28;20141;-81
2022/12/20 10:59:54;;;;;;;11.52;6.45;;;;;;;5.02;100.00;101697.47;5026179;28;20049;-81
2022/12/20 11:02:31;;;;;;;10.88;5.32;;;;;;;5.00;100.00;101711.84;5022606;28;20651;-81
2022/12/20 11:05:01;;;;;;;16.13;6.13;;;;;;;5.01;100.00;101721.31;5030081;28;20071;-81
2022/12/20 11:07:32;;;;;;;18.27;6.93;;;;;;;5.02;100.00;101715.41;5025257;28;20045;-81
2022/12/20 11:10:02;;;;;;;16.60;6.68;;;;;;;5.04;100.00;101708.72;5024043;28;20041;-80
2022/12/20 11:12:32;;;;;;;12.90;5.95;;;;;;;5.00;100.00;101704.16;5026300;28;20111;-80
2022/12/20 11:15:22;;;;;;;15.25;6.35;;;;;;;4.98;100.00;101693.78;5020408;28;20054;-80
2022/12/20 11:17:54;;;;;;;14.70;6.78;;;;;;;4.97;100.00;101689.47;5024997;28;20045;-79
2022/12/20 11:20:32;;;;;;;;;;;;;;;4.96;100.00;101686.78;5025988;28;20073;-80
2022/12/20 11:23:17;;;;;;;11.15;5.57;;;;;;;4.98;100.00;101678.41;5019303;28;19925;-81
2022/12/20 11:26:02;;;;;;;14.77;6.32;;;;;;;5.02;100.00;101671.81;5022633;28;20054;-79
2022/12/20 11:28:51;;;;;;;13.95;6.82;;;;;;;5.07;100.00;101667.88;5024748;28;20423;-81
2022/12/20 11:31:29;;;;;;;17.80;6.95;;;;;;;5.09;100.00;101668.88;5027547;28;20061;-82
2022/12/20 11:34:15;;;;;;;14.77;6.10;;;;;;;5.08;100.00;101658.50;5025985;28;20050;-81
2022/12/20 11:37:02;;;;;;;24.48;8.20;;;;;;;5.08;100.00;101664.50;5023751;28;20050;-81
2022/12/20 11:39:39;;;;;;;14.43;7.10;;;;;;;5.10;100.00;101649.22;5023192;28;20144;-80
2022/12/20 11:42:17;;;;;;;16.55;7.30;;;;;;;5.08;100.00;101643.97;5022291;28;20057;-79
2022/12/20 11:44:59;;;;;;;16.33;6.88;;;;;;;5.10;100.00;101650.09;5024797;28;20077;-80
2022/12/20 11:47:57;;;;;;;18.67;6.78;;;;;;;5.12;100.00;101650.22;5024959;28;20396;-81
2022/12/20 11:50:43;;;;;;;15.90;6.75;;;;;;;5.17;100.00;101652.28;5011984;28;20053;-81
2022/12/20 11:53:21;;;;;;;11.48;6.15;;;;;;;5.22;100.00;101661.19;5016697;28;20077;-81
2022/12/20 11:55:54;;;;;;;17.88;6.38;;;;;;;5.23;100.00;101647.56;5023947;28;20092;-81